Flight Track Log - Related Links

Times and Time Zones

All times are in EDT time to prevent confusion due to time zone crossing. See the BOE2 flight status page for this flight to view local times or setup timezone preferences in your user account.

Time Position Orientation Groundspeed Altitude Reporting Facility
EDT Latitude Longitude Course Direction KTS MPH feet Rate Location/Type
Tue 12:11:31 PM 47.5156 -122.2900 150° Southeast 173 199 1,100  Level FlightAware ADS-B
Tue 12:11:41 PM 47.5087 -122.2840 149° Southeast 173 199 1,900 4,154 Climbing FlightAware ADS-B
Tue 12:11:57 PM 47.4979 -122.2750 149° Southeast 182 209 2,900 3,818 Climbing FlightAware ADS-B
Tue 12:12:03 PM 47.4932 -122.2704 149° Southeast 186 214 3,300 4,000 Climbing FlightAware ADS-B
Tue 12:12:06 PM 47.4910 -122.2680 150° Southeast 187 215 3,500 4,000 Climbing FlightAware ADS-B
Tue 12:12:15 PM 47.4840 -122.2630 151° Southeast 189 217 4,100 3,474 Climbing FlightAware ADS-B
Tue 12:12:25 PM 47.4769 -122.2569 151° Southeast 189 217 4,600 3,000 Climbing FlightAware ADS-B
Tue 12:12:29 PM 47.4733 -122.2540 151° Southeast 189 217 4,800 2,308 Climbing FlightAware ADS-B
Tue 12:12:38 PM 47.4666 -122.2480 149° Southeast 187 215 5,100 1,846 Climbing FlightAware ADS-B
Tue 12:12:42 PM 47.4638 -122.2460 147° Southeast 188 216 5,200 857 Climbing FlightAware ADS-B
Tue 12:12:45 PM 47.4613 -122.2430 145° Southeast 189 217 5,200 857 Level FlightAware ADS-B
Tue 12:12:49 PM 47.4588 -122.2400 139° Southeast 190 219 5,300 750 Climbing FlightAware ADS-B
Tue 12:12:53 PM 47.4563 -122.2360 131° Southeast 192 221 5,300 750 Level FlightAware ADS-B
Tue 12:12:57 PM 47.4546 -122.2320 123° Southeast 194 223 5,400  Climbing FlightAware ADS-B
Tue 12:13:02 PM 47.4530 -122.2260 107° East 198 228 5,300 -1,000 Descending FlightAware ADS-B
Tue 12:13:03 PM 47.4588 -122.2401 97° East 201 231 5,300  Level FlightAware ADS-B
Tue 12:13:05 PM 47.4526 -122.2220 97° East 201 231 5,300  Level FlightAware ADS-B
Tue 12:13:08 PM 47.4528 -122.2170 84° East 204 235 5,300 -857 Level FlightAware ADS-B
Tue 12:13:12 PM 47.4536 -122.2120 75° East 205 236 5,200 -857 Descending FlightAware ADS-B
Tue 12:13:15 PM 47.4549 -122.2080 63° Northeast 206 237 5,200 -857 Level FlightAware ADS-B
Tue 12:13:19 PM 47.4568 -122.2040 54° Northeast 207 238 5,100 -857 Descending FlightAware ADS-B
Tue 12:13:22 PM 47.4590 -122.2010 43° Northeast 208 239 5,100 -1,200 Level FlightAware ADS-B
Tue 12:13:24 PM 47.4607 -122.1988 37° Northeast 208 239 5,000 -2,000 Descending FlightAware ADS-B
Tue 12:13:25 PM 47.4617 -122.1980 34° Northeast 208 239 5,000  Level FlightAware ADS-B
Tue 12:13:29 PM 47.4645 -122.1960 25° Northeast 208 239 5,000 -857 Level FlightAware ADS-B
Tue 12:13:32 PM 47.4678 -122.1940 13° North 209 241 4,900 -1,714 Descending FlightAware ADS-B
Tue 12:13:36 PM 47.4716 -122.1940 North 209 241 4,800 -1,714 Descending FlightAware ADS-B
Tue 12:13:39 PM 47.4745 -122.1940 358° North 209 241 4,700 -857 Descending FlightAware ADS-B
Tue 12:13:43 PM 47.4784 -122.1940 355° North 209 241 4,700 -1,000 Level FlightAware ADS-B
Tue 12:13:45 PM 47.4798 -122.1947 354° North 208 239 4,600 -1,200 Descending FlightAware ADS-B
Tue 12:13:53 PM 47.4881 -122.1960 355° North 207 238 4,500 -1,059 Descending FlightAware ADS-B
Tue 12:14:02 PM 47.4963 -122.1970 358° North 206 237 4,300 -1,000 Descending FlightAware ADS-B
Tue 12:14:05 PM 47.4944 -122.1964 358° North 205 236 4,300 -2,000 Level FlightAware ADS-B
Tue 12:14:17 PM 47.5105 -122.1970 359° North 208 239 3,800 -2,100 Descending FlightAware ADS-B
Tue 12:14:25 PM 47.5180 -122.1974 358° North 209 241 3,600 -1,059 Descending FlightAware ADS-B
Tue 12:14:34 PM 47.5270 -122.1980 357° North 205 236 3,500 -300 Descending FlightAware ADS-B
Tue 12:14:45 PM 47.5340 -122.1986 356° North 204 235 3,500  Level FlightAware ADS-B
Tue 12:14:48 PM 47.5405 -122.1990 356° North 203 234 3,500  Level FlightAware ADS-B
Tue 12:15:02 PM 47.5533 -122.2000 357° North 201 231 3,500  Level FlightAware ADS-B
Tue 12:15:05 PM 47.5541 -122.2005 358° North 201 231 3,500  Level FlightAware ADS-B
Tue 12:15:06 PM 47.5571 -122.2010 358° North 201 231 3,500  Level FlightAware ADS-B
Tue 12:15:13 PM 47.5631 -122.2010 North 202 232 3,500  Level FlightAware ADS-B
Tue 12:15:20 PM 47.5696 -122.2010 North 202 232 3,500  Level FlightAware ADS-B
Tue 12:15:24 PM 47.5705 -122.2004 North 202 232 3,500  Level FlightAware ADS-B
Tue 12:15:35 PM 47.5841 -122.1990 North 204 235 3,500  Level FlightAware ADS-B
Tue 12:15:45 PM 47.5931 -122.1987 North 203 234 3,500  Level FlightAware ADS-B
Tue 12:15:46 PM 47.5946 -122.1990 North 203 234 3,500  Level FlightAware ADS-B
Tue 12:16:01 PM 47.6091 -122.1980 North 202 232 3,500  Level FlightAware ADS-B
Tue 12:16:05 PM 47.6072 -122.1981 North 202 232 3,500  Level FlightAware ADS-B
Tue 12:16:16 PM 47.6229 -122.1980 North 201 231 3,500  Level FlightAware ADS-B
Tue 12:16:25 PM 47.6302 -122.1978 North 202 232 3,500  Level FlightAware ADS-B
Tue 12:16:26 PM 47.6320 -122.1980 North 202 232 3,500  Level FlightAware ADS-B
Tue 12:16:35 PM 47.6406 -122.1980 358° North 202 232 3,500  Level FlightAware ADS-B
Tue 12:16:39 PM 47.6440 -122.1980 351° North 202 232 3,500  Level FlightAware ADS-B
Tue 12:16:42 PM 47.6468 -122.2000 340° North 202 232 3,500  Level FlightAware ADS-B
Tue 12:16:45 PM 47.6480 -122.2004 331° Northwest 203 234 3,500  Level FlightAware ADS-B
Tue 12:16:47 PM 47.6506 -122.2030 328° Northwest 202 232 3,500  Level FlightAware ADS-B
Tue 12:16:50 PM 47.6530 -122.2060 317° Northwest 202 232 3,500  Level FlightAware ADS-B
Tue 12:16:54 PM 47.6552 -122.2100 308° West 201 231 3,500  Level FlightAware ADS-B
Tue 12:16:57 PM 47.6566 -122.2140 296° West 200 230 3,500  Level FlightAware ADS-B
Tue 12:17:00 PM 47.6575 -122.2180 286° West 199 229 3,500  Level FlightAware ADS-B
Tue 12:17:04 PM 47.6580 -122.2220 279° West 197 227 3,500  Level FlightAware ADS-B
Tue 12:17:05 PM 47.6581 -122.2241 275° West 198 228 3,500  Level FlightAware ADS-B
Tue 12:17:07 PM 47.6582 -122.2270 272° West 197 227 3,500  Level FlightAware ADS-B
Tue 12:17:16 PM 47.6580 -122.2390 268° West 196 226 3,500  Level FlightAware ADS-B
Tue 12:17:25 PM 47.6576 -122.2504 267° West 195 224 3,500  Level FlightAware ADS-B
Tue 12:17:32 PM 47.6573 -122.2600 268° West 197 227 3,500  Level FlightAware ADS-B
Tue 12:17:44 PM 47.6570 -122.2770 268° West 197 227 3,500  Level FlightAware ADS-B
Tue 12:17:45 PM 47.6570 -122.2752 268° West 197 227 3,500  Level FlightAware ADS-B
Tue 12:17:47 PM 47.6567 -122.2810 264° West 197 227 3,500  Level FlightAware ADS-B
Tue 12:17:51 PM 47.6561 -122.2860 257° West 196 226 3,500  Level FlightAware ADS-B
Tue 12:17:54 PM 47.6549 -122.2900 245° Southwest 195 224 3,500  Level FlightAware ADS-B
Tue 12:17:57 PM 47.6532 -122.2930 235° Southwest 193 222 3,500  Level FlightAware ADS-B
Tue 12:18:01 PM 47.6507 -122.2970 222° Southwest 190 219 3,500 -750 Level FlightAware ADS-B
Tue 12:18:05 PM 47.6492 -122.2989 214° Southwest 189 217 3,400 -857 Descending FlightAware ADS-B
Tue 12:18:08 PM 47.6458 -122.3020 209° Southwest 187 215 3,400 -750 Level FlightAware ADS-B
Tue 12:18:21 PM 47.6360 -122.3090 205° Southwest 186 214 3,200 -1,059 Descending FlightAware ADS-B
Tue 12:18:25 PM 47.6363 -122.3085 206° Southwest 185 213 3,100 -1,714 Descending FlightAware ADS-B
Tue 12:18:28 PM 47.6306 -122.3130 207° Southwest 186 214 3,000 -1,333 Descending FlightAware ADS-B
Tue 12:18:34 PM 47.6258 -122.3160 205° Southwest 187 215 2,900 -1,200 Descending FlightAware ADS-B
Tue 12:18:38 PM 47.6231 -122.3180 201° Southwest 187 215 2,800 -1,500 Descending FlightAware ADS-B
Tue 12:18:42 PM 47.6192 -122.3190 190° South 186 214 2,700 -857 Descending FlightAware ADS-B
Tue 12:18:45 PM 47.6167 -122.3200 182° South 185 213 2,700 -1,000 Level FlightAware ADS-B
Tue 12:18:48 PM 47.6141 -122.3190 176° South 184 212 2,600 -1,000 Descending FlightAware ADS-B
Tue 12:18:57 PM 47.6061 -122.3180 174° South 183 211 2,500 -706 Descending FlightAware ADS-B
Tue 12:19:05 PM 47.6010 -122.3174 176° South 188 216 2,400 -600 Descending FlightAware ADS-B
Tue 12:19:07 PM 47.5976 -122.3170 176° South 187 215 2,400  Level FlightAware ADS-B
Tue 12:19:16 PM 47.5901 -122.3170 179° South 189 217 2,400 -375 Level FlightAware ADS-B
Tue 12:19:23 PM 47.5838 -122.3170 181° South 189 217 2,300 -750 Descending FlightAware ADS-B
Tue 12:19:24 PM 47.5847 -122.3166 181° South 190 219 2,300 -1,385 Level FlightAware ADS-B
Tue 12:19:36 PM 47.5726 -122.3170 181° South 192 221 2,000 -1,200 Descending FlightAware ADS-B
Tue 12:19:44 PM 47.5726 -122.3170 181° South 192 221 1,900 -800 Descending FlightAware ADS-B
Tue 12:19:51 PM 47.5591 -122.3170 180° South 191 220 1,800 -1,000 Descending FlightAware ADS-B
Tue 12:20:02 PM 47.5497 -122.3170 180° South 185 213 1,600 -1,143 Descending FlightAware ADS-B
Tue 12:20:12 PM 47.5411 -122.3170 180° South 175 201 1,400 -960 Descending FlightAware ADS-B
Tue 12:20:27 PM 47.5295 -122.3170 180° South 162 186 1,200 -818 Descending FlightAware ADS-B
Tue 12:20:34 PM 47.5247 -122.3170 181° South 156 180 1,100 -900 Descending FlightAware ADS-B
Tue 12:20:47 PM 47.5155 -122.3180 180° South 143 165 900 -857 Descending FlightAware ADS-B
Tue 12:20:55 PM 47.5104 -122.3180 180° South 136 157 800 -783 Descending FlightAware ADS-B
Tue 12:21:10 PM 47.5012 -122.3170 180° South 132 152 600 -600 Descending FlightAware ADS-B
Tue 12:21:25 PM 47.4918 -122.3180 180° South 134 154 500 -600 Descending FlightAware ADS-B
Tue 12:21:40 PM 47.4823 -122.3180 180° South 137 158 300 -122 Descending FlightAware ADS-B
Tue 12:22:14 PM 47.4633 -122.3181 180° South 137 158 400 133 Climbing Seattle Center
Tue 12:22:25 PM 47.4553 -122.3189 184° South 128 147 400  Level Seattle Center
Tue 12:23:14 PM 47.4525 -122.3172 158° South 128 147 400  Level Seattle Center
Tue 12:24:09 PM 47.4525 -122.3172 270° West 128 147 400 41 Level Seattle Center
Tue 12:30:37 PM 47.4428 -122.3180 181° South 172 198 700 151 Climbing FlightAware ADS-B
Tue 12:30:47 PM 47.4344 -122.3180 181° South 187 215 1,400 3,176 Climbing FlightAware ADS-B
Tue 12:30:54 PM 47.4281 -122.3180 179° South 201 231 1,600 2,000 Climbing FlightAware ADS-B
Tue 12:31:05 PM 47.4174 -122.3180 180° South 210 242 2,000 2,000 Climbing FlightAware ADS-B
Tue 12:31:15 PM 47.4076 -122.3180 180° South 215 247 2,300 2,400 Climbing FlightAware ADS-B
Tue 12:31:25 PM 47.3974 -122.3180 181° South 217 250 2,800 3,250 Climbing FlightAware ADS-B
Tue 12:31:39 PM 47.3832 -122.3180 180° South 216 249 3,600 2,870 Climbing FlightAware ADS-B
Tue 12:31:48 PM 47.3742 -122.3180 180° South 213 245 3,900 1,680 Climbing FlightAware ADS-B
Tue 12:32:04 PM 47.3590 -122.3180 180° South 215 247 4,300 968 Climbing FlightAware ADS-B
Tue 12:32:19 PM 47.3434 -122.3190 180° South 217 250 4,400 250 Climbing FlightAware ADS-B
Tue 12:32:28 PM 47.3348 -122.3190 181° South 216 249 4,400  Level FlightAware ADS-B
Tue 12:32:31 PM 47.3316 -122.3190 183° South 216 249 4,400  Level FlightAware ADS-B
Tue 12:32:35 PM 47.3276 -122.3200 189° South 216 249 4,400  Level FlightAware ADS-B
Tue 12:32:40 PM 47.3234 -122.3210 198° South 216 249 4,400  Level FlightAware ADS-B
Tue 12:32:43 PM 47.3202 -122.3240 209° Southwest 217 250 4,400  Level FlightAware ADS-B
Tue 12:32:46 PM 47.3177 -122.3270 217° Southwest 218 251 4,400  Level FlightAware ADS-B
Tue 12:32:50 PM 47.3152 -122.3300 228° Southwest 219 252 4,400 750 Level FlightAware ADS-B
Tue 12:32:54 PM 47.3127 -122.3350 235° Southwest 220 253 4,500 857 Climbing FlightAware ADS-B
Tue 12:32:57 PM 47.3111 -122.3400 241° Southwest 221 254 4,500  Level FlightAware ADS-B
Tue 12:33:01 PM 47.3095 -122.3450 247° West 223 257 4,500  Level FlightAware ADS-B
Tue 12:33:09 PM 47.3064 -122.3570 249° West 226 260 4,500  Level FlightAware ADS-B
Tue 12:33:17 PM 47.3036 -122.3680 251° West 226 260 4,500  Level FlightAware ADS-B
Tue 12:33:20 PM 47.3027 -122.3720 254° West 226 260 4,500  Level FlightAware ADS-B
Tue 12:33:24 PM 47.3017 -122.3780 259° West 227 261 4,500  Level FlightAware ADS-B
Tue 12:33:31 PM 47.3007 -122.3890 264° West 227 261 4,500  Level FlightAware ADS-B
Tue 12:33:43 PM 47.2999 -122.4080 268° West 229 264 4,500  Level FlightAware ADS-B
Tue 12:33:47 PM 47.2998 -122.4140 271° West 230 265 4,500  Level FlightAware ADS-B
Tue 12:33:50 PM 47.3001 -122.4190 275° West 230 265 4,500  Level FlightAware ADS-B
Tue 12:33:54 PM 47.3009 -122.4250 284° West 232 267 4,500  Level FlightAware ADS-B
Tue 12:33:58 PM 47.3027 -122.4310 294° West 233 268 4,500  Level FlightAware ADS-B
Tue 12:34:02 PM 47.3048 -122.4360 304° West 234 269 4,500  Level FlightAware ADS-B
Tue 12:34:06 PM 47.3079 -122.4410 314° West 235 270 4,500  Level FlightAware ADS-B
Tue 12:34:10 PM 47.3107 -122.4440 322° Northwest 236 272 4,500  Level FlightAware ADS-B
Tue 12:34:13 PM 47.3141 -122.4470 333° Northwest 237 273 4,500  Level FlightAware ADS-B
Tue 12:34:17 PM 47.3182 -122.4490 342° North 236 272 4,500  Level FlightAware ADS-B
Tue 12:34:22 PM 47.3229 -122.4510 349° North 237 273 4,500  Level FlightAware ADS-B
Tue 12:34:25 PM 47.3266 -122.4516 353° North 237 273 4,500  Level FlightAware ADS-B
Tue 12:34:33 PM 47.3356 -122.4530 356° North 237 273 4,500  Level FlightAware ADS-B
Tue 12:34:40 PM 47.3423 -122.4534 356° North 237 273 4,500  Level FlightAware ADS-B
Tue 12:34:49 PM 47.3526 -122.4540 356° North 236 272 4,500  Level FlightAware ADS-B
Tue 12:35:04 PM 47.3694 -122.4560 356° North 236 272 4,500  Level FlightAware ADS-B
Tue 12:35:20 PM 47.3864 -122.4580 356° North 234 269 4,500  Level FlightAware ADS-B
Tue 12:35:24 PM 47.3899 -122.4580 356° North 230 265 4,500  Level FlightAware ADS-B
Tue 12:35:35 PM 47.4023 -122.4590 356° North 219 252 4,500  Level FlightAware ADS-B
Tue 12:35:44 PM 47.3964 -122.4586 356° North 219 252 4,500  Level FlightAware ADS-B
Tue 12:35:50 PM 47.4172 -122.4610 357° North 214 246 4,500  Level FlightAware ADS-B
Tue 12:36:04 PM 47.4312 -122.4617 357° North 214 246 4,500  Level FlightAware ADS-B
Tue 12:36:05 PM 47.4322 -122.4620 357° North 214 246 4,500  Level FlightAware ADS-B
Tue 12:36:21 PM 47.4478 -122.4630 357° North 213 245 4,500  Level FlightAware ADS-B
Tue 12:36:36 PM 47.4626 -122.4640 357° North 214 246 4,500  Level FlightAware ADS-B
Tue 12:36:39 PM 47.4654 -122.4647 357° North 214 246 4,500  Level FlightAware ADS-B
Tue 12:36:51 PM 47.4775 -122.4660 357° North 214 246 4,500  Level FlightAware ADS-B
Tue 12:37:04 PM 47.4872 -122.4666 357° North 213 245 4,500  Level FlightAware ADS-B
Tue 12:37:06 PM 47.4925 -122.4670 357° North 213 245 4,500  Level FlightAware ADS-B
Tue 12:37:24 PM 47.5092 -122.4685 357° North 212 244 4,500  Level FlightAware ADS-B
Tue 12:37:25 PM 47.5106 -122.4690 356° North 212 244 4,500  Level FlightAware ADS-B
Tue 12:37:40 PM 47.5259 -122.4700 357° North 213 245 4,500  Level FlightAware ADS-B
Tue 12:37:43 PM 47.5210 -122.4695 357° North 213 245 4,500  Level FlightAware ADS-B
Tue 12:37:55 PM 47.5409 -122.4710 357° North 213 245 4,500  Level FlightAware ADS-B
Tue 12:38:05 PM 47.5486 -122.4721 357° North 212 244 4,500  Level FlightAware ADS-B
Tue 12:38:11 PM 47.5560 -122.4730 357° North 213 245 4,500  Level FlightAware ADS-B
Tue 12:38:24 PM 47.5675 -122.4737 357° North 212 244 4,500  Level FlightAware ADS-B
Tue 12:38:26 PM 47.5710 -122.4740 357° North 212 244 4,500  Level FlightAware ADS-B
Tue 12:38:41 PM 47.5857 -122.4750 357° North 212 244 4,500  Level FlightAware ADS-B
Tue 12:38:45 PM 47.5871 -122.4754 357° North 212 244 4,500  Level FlightAware ADS-B
Tue 12:38:57 PM 47.6007 -122.4770 357° North 212 244 4,500  Level FlightAware ADS-B
Tue 12:39:05 PM 47.6084 -122.4772 357° North 212 244 4,500  Level FlightAware ADS-B
Tue 12:39:12 PM 47.6163 -122.4780 357° North 213 245 4,500  Level FlightAware ADS-B
Tue 12:39:25 PM 47.6278 -122.4788 357° North 212 244 4,500  Level FlightAware ADS-B
Tue 12:39:28 PM 47.6314 -122.4790 357° North 212 244 4,500  Level FlightAware ADS-B
Tue 12:39:33 PM 47.6369 -122.4790 358° North 212 244 4,500  Level FlightAware ADS-B
Tue 12:39:37 PM 47.6400 -122.4790 North 212 244 4,500  Level FlightAware ADS-B
Tue 12:39:41 PM 47.6446 -122.4780 North 211 243 4,500 -750 Level FlightAware ADS-B
Tue 12:39:45 PM 47.6476 -122.4770 19° North 210 242 4,400 -857 Descending FlightAware ADS-B
Tue 12:39:48 PM 47.6509 -122.4750 29° Northeast 208 239 4,400  Level FlightAware ADS-B
Tue 12:39:52 PM 47.6539 -122.4710 41° Northeast 205 236 4,400 -667 Level FlightAware ADS-B
Tue 12:39:57 PM 47.6565 -122.4660 53° Northeast 203 234 4,300 -1,200 Descending FlightAware ADS-B
Tue 12:40:02 PM 47.6586 -122.4600 69° East 199 229 4,200 -667 Descending FlightAware ADS-B
Tue 12:40:06 PM 47.6597 -122.4550 76° East 197 227 4,200 -667 Level FlightAware ADS-B
Tue 12:40:11 PM 47.6605 -122.4480 79° East 197 227 4,100 -1,200 Descending FlightAware ADS-B
Tue 12:40:16 PM 47.6612 -122.4410 82° East 198 228 4,000 -1,200 Descending FlightAware ADS-B
Tue 12:40:21 PM 47.6618 -122.4350 83° East 199 229 3,900 -1,412 Descending FlightAware ADS-B
Tue 12:40:33 PM 47.6630 -122.4180 84° East 201 231 3,600 -889 Descending FlightAware ADS-B
Tue 12:40:48 PM 47.6643 -122.3970 85° East 203 234 3,500 -194 Descending FlightAware ADS-B
Tue 12:41:04 PM 47.6655 -122.3760 85° East 200 230 3,500  Level FlightAware ADS-B
Tue 12:41:11 PM 47.6661 -122.3660 87° East 198 228 3,500  Level FlightAware ADS-B
Tue 12:41:16 PM 47.6660 -122.3590 93° East 198 228 3,500 -545 Level FlightAware ADS-B
Tue 12:41:22 PM 47.6651 -122.3520 105° East 197 227 3,400 -667 Descending FlightAware ADS-B
Tue 12:41:25 PM 47.6638 -122.3480 114° Southeast 195 224 3,400  Level FlightAware ADS-B
Tue 12:41:29 PM 47.6618 -122.3440 126° Southeast 193 222 3,400 -750 Level FlightAware ADS-B
Tue 12:41:33 PM 47.6591 -122.3400 140° Southeast 191 220 3,300 -750 Descending FlightAware ADS-B
Tue 12:41:37 PM 47.6564 -122.3370 147° Southeast 190 219 3,300 -667 Level FlightAware ADS-B
Tue 12:41:42 PM 47.6524 -122.3330 152° Southeast 190 219 3,200 -1,125 Descending FlightAware ADS-B
Tue 12:41:53 PM 47.6437 -122.3280 156° South 192 221 3,000 -1,200 Descending FlightAware ADS-B
Tue 12:42:02 PM 47.6361 -122.3230 157° South 192 221 2,800 -1,125 Descending FlightAware ADS-B
Tue 12:42:09 PM 47.6304 -122.3200 158° South 193 222 2,700 -1,091 Descending FlightAware ADS-B
Tue 12:42:13 PM 47.6277 -122.3180 162° South 193 222 2,600 -857 Descending FlightAware ADS-B
Tue 12:42:16 PM 47.6247 -122.3160 169° South 192 221 2,600 -1,000 Level FlightAware ADS-B
Tue 12:42:19 PM 47.6219 -122.3170 174° South 192 221 2,500 -1,000 Descending FlightAware ADS-B
Tue 12:42:22 PM 47.6190 -122.3160 177° South 192 221 2,500  Level FlightAware ADS-B
Tue 12:42:28 PM 47.6140 -122.3160 180° South 195 224 2,500  Level FlightAware ADS-B
Tue 12:42:35 PM 47.6077 -122.3160 181° South 193 222 2,500 -286 Level FlightAware ADS-B
Tue 12:42:49 PM 47.5949 -122.3170 181° South 194 223 2,400 -692 Descending FlightAware ADS-B
Tue 12:43:01 PM 47.5848 -122.3170 180° South 197 227 2,200 -889 Descending FlightAware ADS-B
Tue 12:43:16 PM 47.5707 -122.3170 180° South 196 226 2,000 -1,000 Descending FlightAware ADS-B
Tue 12:43:31 PM 47.5570 -122.3170 180° South 194 223 1,700 -1,000 Descending FlightAware ADS-B
Tue 12:43:46 PM 47.5437 -122.3170 180° South 188 216 1,500 -968 Descending FlightAware ADS-B
Tue 12:44:02 PM 47.5307 -122.3170 180° South 179 206 1,200 -1,111 Descending FlightAware ADS-B
Tue 12:44:13 PM 47.5214 -122.3170 181° South 169 194 1,000 -889 Descending FlightAware ADS-B
Tue 12:44:29 PM 47.5099 -122.3180 180° South 156 180 800 -750 Descending FlightAware ADS-B
Tue 12:44:37 PM 47.5041 -122.3180 180° South 144 166 700 -600 Descending FlightAware ADS-B
Tue 12:44:49 PM 47.4964 -122.3180 180° South 135 155 600 -621 Descending FlightAware ADS-B
Tue 12:45:06 PM 47.4857 -122.3180 180° South 134 154 400 -118 Descending FlightAware ADS-B
Tue 12:45:40 PM 47.4664 -122.3194 180° South 126 145 500  Climbing Seattle Center
Tue 12:46:05 PM 47.4511 -122.3197 181° South 136 157 400 -240 Descending Seattle Center
Tue 12:48:00 PM 47.4499 -122.3118 146° Southeast  Level Estimated

Login

Don't have an account? Register now (free) for customized features, flight alerts, and more!